sensor_id;sensor_type;location;lat;lon;timestamp;temperature;humidity
16066;DHT22;8137;48.952;8.970;2022-11-09T00:32:54;9.40;99.90
16066;DHT22;8137;48.952;8.970;2022-11-09T00:35:20;9.50;99.90
16066;DHT22;8137;48.952;8.970;2022-11-09T00:37:46;9.50;99.90
16066;DHT22;8137;48.952;8.970;2022-11-09T00:40:11;9.60;99.90
16066;DHT22;8137;48.952;8.970;2022-11-09T00:42:37;9.50;99.90
16066;DHT22;8137;48.952;8.970;2022-11-09T00:45:03;9.50;99.90
16066;DHT22;8137;48.952;8.970;2022-11-09T00:47:29;9.50;99.90
16066;DHT22;8137;48.952;8.970;2022-11-09T00:49:54;9.50;99.90
16066;DHT22;8137;48.952;8.970;2022-11-09T00:52:21;9.50;99.90
16066;DHT22;8137;48.952;8.970;2022-11-09T00:54:46;9.60;99.90
16066;DHT22;8137;48.952;8.970;2022-11-09T00:57:12;9.60;99.90
16066;DHT22;8137;48.952;8.970;2022-11-09T00:59:38;9.60;99.90
16066;DHT22;8137;48.952;8.970;2022-11-09T01:02:04;9.70;99.90
16066;DHT22;8137;48.952;8.970;2022-11-09T01:04:29;9.70;99.90
16066;DHT22;8137;48.952;8.970;2022-11-09T01:06:55;9.70;99.90
16066;DHT22;8137;48.952;8.970;2022-11-09T01:09:20;9.70;99.90
16066;DHT22;8137;48.952;8.970;2022-11-09T01:11:46;9.60;99.90
16066;DHT22;8137;48.952;8.970;2022-11-09T01:14:11;9.60;99.90
16066;DHT22;8137;48.952;8.970;2022-11-09T01:16:38;9.60;99.90
16066;DHT22;8137;48.952;8.970;2022-11-09T01:19:03;9.60;99.90
16066;DHT22;8137;48.952;8.970;2022-11-09T01:21:29;9.60;99.90
16066;DHT22;8137;48.952;8.970;2022-11-09T01:23:55;9.60;99.90
16066;DHT22;8137;48.952;8.970;2022-11-09T01:26:22;9.60;99.90
16066;DHT22;8137;48.952;8.970;2022-11-09T01:28:48;9.70;99.90
16066;DHT22;8137;48.952;8.970;2022-11-09T01:31:17;9.60;99.90
16066;DHT22;8137;48.952;8.970;2022-11-09T01:33:43;9.60;99.90
16066;DHT22;8137;48.952;8.970;2022-11-09T01:36:20;9.60;99.90
16066;DHT22;8137;48.952;8.970;2022-11-09T01:38:46;9.50;99.90
16066;DHT22;8137;48.952;8.970;2022-11-09T01:43:42;9.60;99.90
16066;DHT22;8137;48.952;8.970;2022-11-09T01:46:21;9.60;99.90
16066;DHT22;8137;48.952;8.970;2022-11-09T01:49:02;9.60;99.90
16066;DHT22;8137;48.952;8.970;2022-11-09T01:51:39;9.50;99.90
16066;DHT22;8137;48.952;8.970;2022-11-09T01:54:13;9.50;99.90
16066;DHT22;8137;48.952;8.970;2022-11-09T01:56:40;9.50;99.90
16066;DHT22;8137;48.952;8.970;2022-11-09T01:59:11;9.50;99.90
16066;DHT22;8137;48.952;8.970;2022-11-09T02:01:38;9.50;99.90
16066;DHT22;8137;48.952;8.970;2022-11-09T02:04:12;9.50;99.90
16066;DHT22;8137;48.952;8.970;2022-11-09T02:06:38;9.50;99.90
16066;DHT22;8137;48.952;8.970;2022-11-09T02:09:13;9.50;99.90
16066;DHT22;8137;48.952;8.970;2022-11-09T02:11:40;9.50;99.90
16066;DHT22;8137;48.952;8.970;2022-11-09T02:14:06;9.50;99.90
16066;DHT22;8137;48.952;8.970;2022-11-09T02:16:33;9.50;99.90
16066;DHT22;8137;48.952;8.970;2022-11-09T02:18:59;9.60;99.90
16066;DHT22;8137;48.952;8.970;2022-11-09T02:21:27;9.50;99.90
16066;DHT22;8137;48.952;8.970;2022-11-09T02:23:54;9.60;99.90
16066;DHT22;8137;48.952;8.970;2022-11-09T02:26:29;9.60;99.90
16066;DHT22;8137;48.952;8.970;2022-11-09T02:28:56;9.70;99.90
16066;DHT22;8137;48.952;8.970;2022-11-09T02:31:25;9.70;99.90
16066;DHT22;8137;48.952;8.970;2022-11-09T02:34:00;9.60;99.90
16066;DHT22;8137;48.952;8.970;2022-11-09T02:36:26;9.60;99.90
16066;DHT22;8137;48.952;8.970;2022-11-09T02:38:53;9.70;99.90
16066;DHT22;8137;48.952;8.970;2022-11-09T02:41:20;9.70;99.90
16066;DHT22;8137;48.952;8.970;2022-11-09T02:43:48;9.70;99.90
16066;DHT22;8137;48.952;8.970;2022-11-09T02:46:31;9.70;99.90
16066;DHT22;8137;48.952;8.970;2022-11-09T02:48:57;9.70;99.90
16066;DHT22;8137;48.952;8.970;2022-11-09T02:51:24;9.70;99.90
16066;DHT22;8137;48.952;8.970;2022-11-09T02:53:49;9.70;99.90
16066;DHT22;8137;48.952;8.970;2022-11-09T02:56:15;9.70;99.90
16066;DHT22;8137;48.952;8.970;2022-11-09T02:58:40;9.70;99.90
16066;DHT22;8137;48.952;8.970;2022-11-09T03:01:06;9.70;99.90
16066;DHT22;8137;48.952;8.970;2022-11-09T03:03:32;9.70;99.90
16066;DHT22;8137;48.952;8.970;2022-11-09T03:05:58;9.70;99.90
16066;DHT22;8137;48.952;8.970;2022-11-09T03:08:23;9.70;99.90
16066;DHT22;8137;48.952;8.970;2022-11-09T03:10:49;9.70;99.90
16066;DHT22;8137;48.952;8.970;2022-11-09T03:13:14;9.70;99.90
16066;DHT22;8137;48.952;8.970;2022-11-09T03:15:40;9.70;99.90
16066;DHT22;8137;48.952;8.970;2022-11-09T03:18:06;9.70;99.90
16066;DHT22;8137;48.952;8.970;2022-11-09T03:20:31;9.70;99.90
16066;DHT22;8137;48.952;8.970;2022-11-09T03:22:58;9.70;99.90
16066;DHT22;8137;48.952;8.970;2022-11-09T03:25:25;9.70;99.90
16066;DHT22;8137;48.952;8.970;2022-11-09T03:28:05;9.70;99.90
16066;DHT22;8137;48.952;8.970;2022-11-09T03:30:31;9.70;99.90
16066;DHT22;8137;48.952;8.970;2022-11-09T03:33:02;9.70;99.90
16066;DHT22;8137;48.952;8.970;2022-11-09T03:35:28;9.80;99.90
16066;DHT22;8137;48.952;8.970;2022-11-09T03:37:53;9.80;99.90
16066;DHT22;8137;48.952;8.970;2022-11-09T03:40:19;9.80;99.90
16066;DHT22;8137;48.952;8.970;2022-11-09T03:42:46;9.80;99.90
16066;DHT22;8137;48.952;8.970;2022-11-09T03:45:13;9.80;99.90
16066;DHT22;8137;48.952;8.970;2022-11-09T03:47:42;9.70;99.90
16066;DHT22;8137;48.952;8.970;2022-11-09T03:50:09;9.70;99.90
16066;DHT22;8137;48.952;8.970;2022-11-09T03:52:35;9.70;99.90
16066;DHT22;8137;48.952;8.970;2022-11-09T03:55:02;9.70;99.90
16066;DHT22;8137;48.952;8.970;2022-11-09T03:57:28;9.70;99.90
16066;DHT22;8137;48.952;8.970;2022-11-09T03:59:53;9.80;99.90
16066;DHT22;8137;48.952;8.970;2022-11-09T04:02:19;9.80;99.90
16066;DHT22;8137;48.952;8.970;2022-11-09T04:04:44;9.70;99.90
16066;DHT22;8137;48.952;8.970;2022-11-09T04:07:10;9.70;99.90
16066;DHT22;8137;48.952;8.970;2022-11-09T04:09:36;9.70;99.90
16066;DHT22;8137;48.952;8.970;2022-11-09T04:12:02;9.70;99.90
16066;DHT22;8137;48.952;8.970;2022-11-09T04:14:28;9.70;99.90
16066;DHT22;8137;48.952;8.970;2022-11-09T04:16:54;9.70;99.90
16066;DHT22;8137;48.952;8.970;2022-11-09T04:19:19;9.70;99.90
16066;DHT22;8137;48.952;8.970;2022-11-09T04:21:45;9.70;99.90
16066;DHT22;8137;48.952;8.970;2022-11-09T04:24:10;9.70;99.90
16066;DHT22;8137;48.952;8.970;2022-11-09T04:26:36;9.70;99.90
16066;DHT22;8137;48.952;8.970;2022-11-09T04:29:02;9.70;99.90
16066;DHT22;8137;48.952;8.970;2022-11-09T04:31:28;9.80;99.90
16066;DHT22;8137;48.952;8.970;2022-11-09T04:33:53;9.80;99.90
16066;DHT22;8137;48.952;8.970;2022-11-09T04:36:19;9.80;99.90
16066;DHT22;8137;48.952;8.970;2022-11-09T04:38:44;9.80;99.90
16066;DHT22;8137;48.952;8.970;2022-11-09T04:41:10;9.80;99.90
16066;DHT22;8137;48.952;8.970;2022-11-09T04:43:36;9.80;99.90
16066;DHT22;8137;48.952;8.970;2022-11-09T04:46:02;9.80;99.90
16066;DHT22;8137;48.952;8.970;2022-11-09T04:48:29;9.80;99.90
16066;DHT22;8137;48.952;8.970;2022-11-09T04:51:02;9.80;99.90
16066;DHT22;8137;48.952;8.970;2022-11-09T04:53:28;9.80;99.90
16066;DHT22;8137;48.952;8.970;2022-11-09T04:55:55;9.90;99.90
16066;DHT22;8137;48.952;8.970;2022-11-09T04:58:21;9.80;99.90
16066;DHT22;8137;48.952;8.970;2022-11-09T05:00:46;9.80;99.90
16066;DHT22;8137;48.952;8.970;2022-11-09T05:03:12;9.80;99.90
16066;DHT22;8137;48.952;8.970;2022-11-09T05:05:38;9.80;99.90
16066;DHT22;8137;48.952;8.970;2022-11-09T05:08:04;9.90;99.90
16066;DHT22;8137;48.952;8.970;2022-11-09T05:10:31;9.90;99.90
16066;DHT22;8137;48.952;8.970;2022-11-09T05:13:02;9.90;99.90
16066;DHT22;8137;48.952;8.970;2022-11-09T05:15:28;9.90;99.90
16066;DHT22;8137;48.952;8.970;2022-11-09T05:17:53;10.00;99.90
16066;DHT22;8137;48.952;8.970;2022-11-09T05:20:19;10.00;99.90
16066;DHT22;8137;48.952;8.970;2022-11-09T05:22:45;10.00;99.90
16066;DHT22;8137;48.952;8.970;2022-11-09T05:25:29;10.00;99.90
16066;DHT22;8137;48.952;8.970;2022-11-09T05:27:54;10.00;99.90
16066;DHT22;8137;48.952;8.970;2022-11-09T05:30:20;10.00;99.90
16066;DHT22;8137;48.952;8.970;2022-11-09T05:32:46;10.10;99.90
16066;DHT22;8137;48.952;8.970;2022-11-09T05:35:11;10.10;99.90
16066;DHT22;8137;48.952;8.970;2022-11-09T05:37:38;10.20;99.90
16066;DHT22;8137;48.952;8.970;2022-11-09T05:40:05;10.30;99.90
16066;DHT22;8137;48.952;8.970;2022-11-09T05:42:31;10.40;99.90
16066;DHT22;8137;48.952;8.970;2022-11-09T05:44:56;10.50;99.90
16066;DHT22;8137;48.952;8.970;2022-11-09T05:47:22;10.40;99.90
16066;DHT22;8137;48.952;8.970;2022-11-09T05:49:48;10.40;99.90
16066;DHT22;8137;48.952;8.970;2022-11-09T05:52:13;10.30;99.90
16066;DHT22;8137;48.952;8.970;2022-11-09T05:54:45;10.20;99.90
16066;DHT22;8137;48.952;8.970;2022-11-09T05:57:11;10.20;99.90
16066;DHT22;8137;48.952;8.970;2022-11-09T05:59:36;10.10;99.90
16066;DHT22;8137;48.952;8.970;2022-11-09T06:02:02;10.10;99.90
16066;DHT22;8137;48.952;8.970;2022-11-09T06:04:27;10.10;99.90
16066;DHT22;8137;48.952;8.970;2022-11-09T06:06:53;10.10;99.90
16066;DHT22;8137;48.952;8.970;2022-11-09T06:09:18;10.00;99.90
16066;DHT22;8137;48.952;8.970;2022-11-09T06:11:44;10.00;99.90
16066;DHT22;8137;48.952;8.970;2022-11-09T06:14:10;10.00;99.90
16066;DHT22;8137;48.952;8.970;2022-11-09T06:16:35;10.00;99.90
16066;DHT22;8137;48.952;8.970;2022-11-09T06:19:01;10.00;99.90
16066;DHT22;8137;48.952;8.970;2022-11-09T06:21:26;10.00;99.90
16066;DHT22;8137;48.952;8.970;2022-11-09T06:23:52;10.00;99.90
16066;DHT22;8137;48.952;8.970;2022-11-09T06:26:18;10.00;99.90
16066;DHT22;8137;48.952;8.970;2022-11-09T06:28:43;10.00;99.90
16066;DHT22;8137;48.952;8.970;2022-11-09T06:31:13;10.10;99.90
16066;DHT22;8137;48.952;8.970;2022-11-09T06:33:39;10.20;99.90
16066;DHT22;8137;48.952;8.970;2022-11-09T06:36:05;10.30;99.90
16066;DHT22;8137;48.952;8.970;2022-11-09T06:38:31;10.30;99.90
16066;DHT22;8137;48.952;8.970;2022-11-09T06:40:58;10.20;99.90
16066;DHT22;8137;48.952;8.970;2022-11-09T06:43:24;10.20;99.90
16066;DHT22;8137;48.952;8.970;2022-11-09T06:45:50;10.20;99.90
16066;DHT22;8137;48.952;8.970;2022-11-09T06:48:16;10.30;99.90
16066;DHT22;8137;48.952;8.970;2022-11-09T06:50:42;10.30;99.90
16066;DHT22;8137;48.952;8.970;2022-11-09T06:53:10;10.30;99.90
16066;DHT22;8137;48.952;8.970;2022-11-09T06:55:37;10.30;99.90
16066;DHT22;8137;48.952;8.970;2022-11-09T06:58:08;10.30;99.90
16066;DHT22;8137;48.952;8.970;2022-11-09T07:00:34;10.30;99.90
16066;DHT22;8137;48.952;8.970;2022-11-09T07:03:00;10.30;99.90
16066;DHT22;8137;48.952;8.970;2022-11-09T07:05:26;10.30;99.90
16066;DHT22;8137;48.952;8.970;2022-11-09T07:07:52;10.30;99.90
16066;DHT22;8137;48.952;8.970;2022-11-09T07:10:18;10.30;99.90
16066;DHT22;8137;48.952;8.970;2022-11-09T07:12:43;10.30;99.90
16066;DHT22;8137;48.952;8.970;2022-11-09T07:15:10;10.30;99.90
16066;DHT22;8137;48.952;8.970;2022-11-09T07:17:36;10.30;99.90
16066;DHT22;8137;48.952;8.970;2022-11-09T07:20:07;10.30;99.90
16066;DHT22;8137;48.952;8.970;2022-11-09T07:22:33;10.40;99.90
16066;DHT22;8137;48.952;8.970;2022-11-09T07:25:05;10.40;99.90
16066;DHT22;8137;48.952;8.970;2022-11-09T07:27:30;10.40;99.90
16066;DHT22;8137;48.952;8.970;2022-11-09T07:29:56;10.40;99.90
16066;DHT22;8137;48.952;8.970;2022-11-09T07:32:21;10.40;99.90
16066;DHT22;8137;48.952;8.970;2022-11-09T07:34:47;10.40;99.90
16066;DHT22;8137;48.952;8.970;2022-11-09T07:37:13;10.50;99.90
16066;DHT22;8137;48.952;8.970;2022-11-09T07:39:38;10.50;99.90
16066;DHT22;8137;48.952;8.970;2022-11-09T07:42:04;10.50;99.90
16066;DHT22;8137;48.952;8.970;2022-11-09T07:44:29;10.50;99.90
16066;DHT22;8137;48.952;8.970;2022-11-09T07:46:55;10.50;99.90
16066;DHT22;8137;48.952;8.970;2022-11-09T07:49:20;10.50;99.90
16066;DHT22;8137;48.952;8.970;2022-11-09T07:51:46;10.60;99.90
16066;DHT22;8137;48.952;8.970;2022-11-09T07:54:11;10.60;99.90
16066;DHT22;8137;48.952;8.970;2022-11-09T07:56:37;10.60;99.90
16066;DHT22;8137;48.952;8.970;2022-11-09T07:59:03;10.70;99.90
16066;DHT22;8137;48.952;8.970;2022-11-09T08:01:29;10.70;99.90
16066;DHT22;8137;48.952;8.970;2022-11-09T08:03:54;10.80;99.90
16066;DHT22;8137;48.952;8.970;2022-11-09T08:06:20;10.80;99.90
16066;DHT22;8137;48.952;8.970;2022-11-09T08:08:48;10.90;99.90
16066;DHT22;8137;48.952;8.970;2022-11-09T08:11:14;11.00;99.90
16066;DHT22;8137;48.952;8.970;2022-11-09T08:13:40;11.00;99.90
16066;DHT22;8137;48.952;8.970;2022-11-09T08:16:06;11.00;99.90
16066;DHT22;8137;48.952;8.970;2022-11-09T08:18:32;11.10;99.90
16066;DHT22;8137;48.952;8.970;2022-11-09T08:21:01;11.00;99.90
16066;DHT22;8137;48.952;8.970;2022-11-09T08:23:27;11.20;99.90
16066;DHT22;8137;48.952;8.970;2022-11-09T08:25:53;11.30;99.90
16066;DHT22;8137;48.952;8.970;2022-11-09T08:28:19;11.40;99.90
16066;DHT22;8137;48.952;8.970;2022-11-09T08:30:52;11.50;99.90
16066;DHT22;8137;48.952;8.970;2022-11-09T08:33:19;11.60;99.90
16066;DHT22;8137;48.952;8.970;2022-11-09T08:35:44;11.60;99.90
16066;DHT22;8137;48.952;8.970;2022-11-09T08:38:10;11.60;99.90
16066;DHT22;8137;48.952;8.970;2022-11-09T08:40:35;11.70;99.90
16066;DHT22;8137;48.952;8.970;2022-11-09T08:43:03;11.70;99.90
16066;DHT22;8137;48.952;8.970;2022-11-09T08:45:31;11.80;99.90
16066;DHT22;8137;48.952;8.970;2022-11-09T08:47:58;11.80;99.90
16066;DHT22;8137;48.952;8.970;2022-11-09T08:50:25;11.80;99.90
16066;DHT22;8137;48.952;8.970;2022-11-09T08:52:51;11.70;99.90
16066;DHT22;8137;48.952;8.970;2022-11-09T08:55:16;11.80;99.90
16066;DHT22;8137;48.952;8.970;2022-11-09T08:57:42;11.80;99.90
16066;DHT22;8137;48.952;8.970;2022-11-09T09:00:08;11.90;99.90
16066;DHT22;8137;48.952;8.970;2022-11-09T09:02:33;11.90;99.90
16066;DHT22;8137;48.952;8.970;2022-11-09T09:04:59;11.90;99.90
16066;DHT22;8137;48.952;8.970;2022-11-09T09:07:25;12.00;99.90
16066;DHT22;8137;48.952;8.970;2022-11-09T09:09:50;12.00;99.90
16066;DHT22;8137;48.952;8.970;2022-11-09T09:12:17;12.10;99.90
16066;DHT22;8137;48.952;8.970;2022-11-09T09:14:43;12.20;99.90
16066;DHT22;8137;48.952;8.970;2022-11-09T09:17:08;12.20;99.90
16066;DHT22;8137;48.952;8.970;2022-11-09T09:19:34;12.30;99.90
16066;DHT22;8137;48.952;8.970;2022-11-09T09:22:00;12.40;99.90
16066;DHT22;8137;48.952;8.970;2022-11-09T09:24:25;12.50;99.90
16066;DHT22;8137;48.952;8.970;2022-11-09T09:26:51;12.60;99.90
16066;DHT22;8137;48.952;8.970;2022-11-09T09:29:17;12.70;99.90
16066;DHT22;8137;48.952;8.970;2022-11-09T09:31:43;12.80;99.90
16066;DHT22;8137;48.952;8.970;2022-11-09T09:34:08;13.00;99.90
16066;DHT22;8137;48.952;8.970;2022-11-09T09:36:35;13.10;99.90
16066;DHT22;8137;48.952;8.970;2022-11-09T09:39:01;13.30;99.90
16066;DHT22;8137;48.952;8.970;2022-11-09T09:41:38;13.60;99.90
16066;DHT22;8137;48.952;8.970;2022-11-09T09:44:21;13.80;99.90
16066;DHT22;8137;48.952;8.970;2022-11-09T09:49:31;14.10;99.90
16066;DHT22;8137;48.952;8.970;2022-11-09T09:54:49;14.40;99.90
16066;DHT22;8137;48.952;8.970;2022-11-09T09:57:20;14.50;99.90
16066;DHT22;8137;48.952;8.970;2022-11-09T09:59:52;14.50;99.90
16066;DHT22;8137;48.952;8.970;2022-11-09T10:02:24;14.50;99.90
16066;DHT22;8137;48.952;8.970;2022-11-09T10:04:56;14.50;99.90
16066;DHT22;8137;48.952;8.970;2022-11-09T10:07:38;14.60;99.90
16066;DHT22;8137;48.952;8.970;2022-11-09T10:10:27;14.60;99.90
16066;DHT22;8137;48.952;8.970;2022-11-09T10:26:58;15.20;99.90
16066;DHT22;8137;48.952;8.970;2022-11-09T10:29:45;15.30;99.90
16066;DHT22;8137;48.952;8.970;2022-11-09T10:32:17;15.40;99.90
16066;DHT22;8137;48.952;8.970;2022-11-09T10:37:38;15.50;99.90
16066;DHT22;8137;48.952;8.970;2022-11-09T10:43:09;15.60;99.90
16066;DHT22;8137;48.952;8.970;2022-11-09T10:45:40;15.50;99.90
16066;DHT22;8137;48.952;8.970;2022-11-09T10:48:09;15.40;99.90
16066;DHT22;8137;48.952;8.970;2022-11-09T10:53:12;15.50;99.90
16066;DHT22;8137;48.952;8.970;2022-11-09T10:56:03;15.40;99.90
16066;DHT22;8137;48.952;8.970;2022-11-09T10:58:52;15.40;99.90
16066;DHT22;8137;48.952;8.970;2022-11-09T11:01:22;15.50;99.90
16066;DHT22;8137;48.952;8.970;2022-11-09T11:03:53;15.60;99.90
16066;DHT22;8137;48.952;8.970;2022-11-09T11:11:24;15.90;99.90
16066;DHT22;8137;48.952;8.970;2022-11-09T11:16:34;15.90;99.90
16066;DHT22;8137;48.952;8.970;2022-11-09T11:19:00;16.00;99.90
16066;DHT22;8137;48.952;8.970;2022-11-09T11:21:27;16.10;99.90
16066;DHT22;8137;48.952;8.970;2022-11-09T11:24:11;16.00;99.90
16066;DHT22;8137;48.952;8.970;2022-11-09T11:29:37;16.10;99.90
16066;DHT22;8137;48.952;8.970;2022-11-09T11:32:13;16.10;99.90
16066;DHT22;8137;48.952;8.970;2022-11-09T11:34:38;16.10;99.90
16066;DHT22;8137;48.952;8.970;2022-11-09T11:38:05;16.10;99.90
16066;DHT22;8137;48.952;8.970;2022-11-09T11:40:28;16.10;99.90
16066;DHT22;8137;48.952;8.970;2022-11-09T11:48:33;16.00;99.90
16066;DHT22;8137;48.952;8.970;2022-11-09T11:56:41;16.00;99.90
16066;DHT22;8137;48.952;8.970;2022-11-09T12:02:30;16.20;99.90
16066;DHT22;8137;48.952;8.970;2022-11-09T12:11:05;16.50;99.90
16066;DHT22;8137;48.952;8.970;2022-11-09T12:21:17;16.40;99.90
16066;DHT22;8137;48.952;8.970;2022-11-09T12:29:24;16.20;99.90
16066;DHT22;8137;48.952;8.970;2022-11-09T12:32:27;16.20;99.90
16066;DHT22;8137;48.952;8.970;2022-11-09T12:37:36;16.20;99.90
16066;DHT22;8137;48.952;8.970;2022-11-09T12:40:31;16.10;99.90
16066;DHT22;8137;48.952;8.970;2022-11-09T12:43:04;16.10;99.90
16066;DHT22;8137;48.952;8.970;2022-11-09T12:45:37;16.10;99.90
16066;DHT22;8137;48.952;8.970;2022-11-09T12:48:54;16.10;99.90
16066;DHT22;8137;48.952;8.970;2022-11-09T12:50:56;16.10;99.90
16066;DHT22;8137;48.952;8.970;2022-11-09T12:53:25;16.00;99.90
16066;DHT22;8137;48.952;8.970;2022-11-09T12:55:57;16.00;99.90
16066;DHT22;8137;48.952;8.970;2022-11-09T12:58:31;15.90;99.90
16066;DHT22;8137;48.952;8.970;2022-11-09T13:00:59;15.80;99.90
16066;DHT22;8137;48.952;8.970;2022-11-09T13:03:26;15.80;99.90
16066;DHT22;8137;48.952;8.970;2022-11-09T13:08:38;15.70;99.90
16066;DHT22;8137;48.952;8.970;2022-11-09T13:11:25;15.70;99.90
16066;DHT22;8137;48.952;8.970;2022-11-09T13:16:48;15.60;99.90
16066;DHT22;8137;48.952;8.970;2022-11-09T13:25:02;15.60;99.90
16066;DHT22;8137;48.952;8.970;2022-11-09T13:29:58;15.50;99.90
16066;DHT22;8137;48.952;8.970;2022-11-09T13:32:29;15.50;99.90
16066;DHT22;8137;48.952;8.970;2022-11-09T13:34:59;15.50;99.90
16066;DHT22;8137;48.952;8.970;2022-11-09T13:37:44;15.50;99.90
16066;DHT22;8137;48.952;8.970;2022-11-09T13:45:55;15.60;99.90
16066;DHT22;8137;48.952;8.970;2022-11-09T13:51:11;15.50;99.90
16066;DHT22;8137;48.952;8.970;2022-11-09T14:01:53;15.30;99.90
16066;DHT22;8137;48.952;8.970;2022-11-09T14:04:35;15.30;99.90
16066;DHT22;8137;48.952;8.970;2022-11-09T14:07:10;15.30;99.90
16066;DHT22;8137;48.952;8.970;2022-11-09T14:12:44;15.20;99.90
16066;DHT22;8137;48.952;8.970;2022-11-09T14:24:11;15.00;99.90
16066;DHT22;8137;48.952;8.970;2022-11-09T14:26:38;14.90;99.90
16066;DHT22;8137;48.952;8.970;2022-11-09T14:29:19;14.90;99.90
16066;DHT22;8137;48.952;8.970;2022-11-09T14:31:45;14.80;99.90
16066;DHT22;8137;48.952;8.970;2022-11-09T14:34:15;14.70;99.90
16066;DHT22;8137;48.952;8.970;2022-11-09T14:36:41;14.70;99.90
16066;DHT22;8137;48.952;8.970;2022-11-09T14:39:32;14.60;99.90
16066;DHT22;8137;48.952;8.970;2022-11-09T14:42:02;14.60;99.90
16066;DHT22;8137;48.952;8.970;2022-11-09T14:44:32;14.50;99.90
16066;DHT22;8137;48.952;8.970;2022-11-09T14:47:01;14.50;99.90
16066;DHT22;8137;48.952;8.970;2022-11-09T14:49:27;14.40;99.90
16066;DHT22;8137;48.952;8.970;2022-11-09T14:51:53;14.40;99.90
16066;DHT22;8137;48.952;8.970;2022-11-09T14:54:23;14.30;99.90
16066;DHT22;8137;48.952;8.970;2022-11-09T14:56:50;14.20;99.90
16066;DHT22;8137;48.952;8.970;2022-11-09T14:59:22;14.10;99.90
16066;DHT22;8137;48.952;8.970;2022-11-09T15:01:56;14.00;99.90
16066;DHT22;8137;48.952;8.970;2022-11-09T15:04:23;14.00;99.90
16066;DHT22;8137;48.952;8.970;2022-11-09T15:06:57;13.90;99.90
16066;DHT22;8137;48.952;8.970;2022-11-09T15:09:34;13.90;99.90
16066;DHT22;8137;48.952;8.970;2022-11-09T15:12:16;13.90;99.90
16066;DHT22;8137;48.952;8.970;2022-11-09T15:14:51;13.90;99.90
16066;DHT22;8137;48.952;8.970;2022-11-09T15:17:22;13.80;99.90
16066;DHT22;8137;48.952;8.970;2022-11-09T15:19:57;13.70;99.90
16066;DHT22;8137;48.952;8.970;2022-11-09T15:25:18;13.60;99.90
16066;DHT22;8137;48.952;8.970;2022-11-09T15:27:56;13.60;99.90
16066;DHT22;8137;48.952;8.970;2022-11-09T15:32:52;13.50;99.90
16066;DHT22;8137;48.952;8.970;2022-11-09T15:35:18;13.50;99.90
16066;DHT22;8137;48.952;8.970;2022-11-09T15:37:49;13.40;99.90
16066;DHT22;8137;48.952;8.970;2022-11-09T15:40:18;13.40;99.90
16066;DHT22;8137;48.952;8.970;2022-11-09T15:42:44;13.40;99.90
16066;DHT22;8137;48.952;8.970;2022-11-09T15:45:13;13.30;99.90
16066;DHT22;8137;48.952;8.970;2022-11-09T15:47:39;13.30;99.90
16066;DHT22;8137;48.952;8.970;2022-11-09T15:50:16;13.20;99.90
16066;DHT22;8137;48.952;8.970;2022-11-09T15:52:43;13.20;99.90
16066;DHT22;8137;48.952;8.970;2022-11-09T15:55:16;13.20;99.90
16066;DHT22;8137;48.952;8.970;2022-11-09T15:57:43;13.10;99.90
16066;DHT22;8137;48.952;8.970;2022-11-09T16:00:13;13.10;99.90
16066;DHT22;8137;48.952;8.970;2022-11-09T16:02:39;13.10;99.90
16066;DHT22;8137;48.952;8.970;2022-11-09T16:05:05;13.00;99.90
16066;DHT22;8137;48.952;8.970;2022-11-09T16:07:31;13.00;99.90
16066;DHT22;8137;48.952;8.970;2022-11-09T16:09:56;13.00;99.90
16066;DHT22;8137;48.952;8.970;2022-11-09T16:12:22;13.00;99.90
16066;DHT22;8137;48.952;8.970;2022-11-09T16:14:48;12.90;99.90
16066;DHT22;8137;48.952;8.970;2022-11-09T16:17:13;12.90;99.90
16066;DHT22;8137;48.952;8.970;2022-11-09T16:19:39;12.90;99.90
16066;DHT22;8137;48.952;8.970;2022-11-09T16:22:06;12.80;99.90
16066;DHT22;8137;48.952;8.970;2022-11-09T16:24:33;12.80;99.90
16066;DHT22;8137;48.952;8.970;2022-11-09T16:26:59;12.80;99.90
16066;DHT22;8137;48.952;8.970;2022-11-09T16:29:27;12.80;99.90
16066;DHT22;8137;48.952;8.970;2022-11-09T16:31:53;12.80;99.90
16066;DHT22;8137;48.952;8.970;2022-11-09T16:34:18;12.80;99.90
16066;DHT22;8137;48.952;8.970;2022-11-09T16:36:45;12.70;99.90
16066;DHT22;8137;48.952;8.970;2022-11-09T16:39:12;12.70;99.90
16066;DHT22;8137;48.952;8.970;2022-11-09T16:41:43;12.70;99.90
16066;DHT22;8137;48.952;8.970;2022-11-09T16:44:09;12.70;99.90
16066;DHT22;8137;48.952;8.970;2022-11-09T16:46:35;12.70;99.90
16066;DHT22;8137;48.952;8.970;2022-11-09T16:49:01;12.70;99.90
16066;DHT22;8137;48.952;8.970;2022-11-09T16:51:27;12.60;99.90
16066;DHT22;8137;48.952;8.970;2022-11-09T16:53:53;12.60;99.90
16066;DHT22;8137;48.952;8.970;2022-11-09T16:56:19;12.60;99.90
16066;DHT22;8137;48.952;8.970;2022-11-09T16:58:44;12.60;99.90
16066;DHT22;8137;48.952;8.970;2022-11-09T17:01:10;12.60;99.90
16066;DHT22;8137;48.952;8.970;2022-11-09T17:03:36;12.60;99.90
16066;DHT22;8137;48.952;8.970;2022-11-09T17:06:02;12.60;99.90
16066;DHT22;8137;48.952;8.970;2022-11-09T17:08:28;12.50;99.90
16066;DHT22;8137;48.952;8.970;2022-11-09T17:10:53;12.50;99.90
16066;DHT22;8137;48.952;8.970;2022-11-09T17:13:19;12.40;99.90
16066;DHT22;8137;48.952;8.970;2022-11-09T17:15:47;12.50;99.90
16066;DHT22;8137;48.952;8.970;2022-11-09T17:18:13;12.40;99.90
16066;DHT22;8137;48.952;8.970;2022-11-09T17:20:44;12.40;99.90
16066;DHT22;8137;48.952;8.970;2022-11-09T17:23:10;12.30;99.90
16066;DHT22;8137;48.952;8.970;2022-11-09T17:25:36;12.30;99.90
16066;DHT22;8137;48.952;8.970;2022-11-09T17:28:02;12.30;99.90
16066;DHT22;8137;48.952;8.970;2022-11-09T17:30:27;12.30;99.90
16066;DHT22;8137;48.952;8.970;2022-11-09T17:32:53;12.20;99.90
16066;DHT22;8137;48.952;8.970;2022-11-09T17:35:19;12.20;99.90
16066;DHT22;8137;48.952;8.970;2022-11-09T17:37:44;12.20;99.90
16066;DHT22;8137;48.952;8.970;2022-11-09T17:40:10;12.20;99.90
16066;DHT22;8137;48.952;8.970;2022-11-09T17:42:36;12.10;99.90
16066;DHT22;8137;48.952;8.970;2022-11-09T17:45:02;12.10;99.90
16066;DHT22;8137;48.952;8.970;2022-11-09T17:47:27;12.10;99.90
16066;DHT22;8137;48.952;8.970;2022-11-09T17:49:53;12.10;99.90
16066;DHT22;8137;48.952;8.970;2022-11-09T17:52:18;12.00;99.90
16066;DHT22;8137;48.952;8.970;2022-11-09T17:54:44;12.00;99.90
16066;DHT22;8137;48.952;8.970;2022-11-09T17:57:09;12.00;99.90
16066;DHT22;8137;48.952;8.970;2022-11-09T17:59:35;12.00;99.90
16066;DHT22;8137;48.952;8.970;2022-11-09T18:02:01;12.00;99.90
16066;DHT22;8137;48.952;8.970;2022-11-09T18:04:26;11.90;99.90
16066;DHT22;8137;48.952;8.970;2022-11-09T18:06:52;11.90;99.90
16066;DHT22;8137;48.952;8.970;2022-11-09T18:09:17;12.20;99.90
16066;DHT22;8137;48.952;8.970;2022-11-09T18:11:44;12.40;99.90
16066;DHT22;8137;48.952;8.970;2022-11-09T18:14:10;12.50;99.90
16066;DHT22;8137;48.952;8.970;2022-11-09T18:16:36;12.60;99.90
16066;DHT22;8137;48.952;8.970;2022-11-09T18:19:02;12.40;99.90
16066;DHT22;8137;48.952;8.970;2022-11-09T18:21:29;12.30;99.90
16066;DHT22;8137;48.952;8.970;2022-11-09T18:23:55;12.20;99.90
16066;DHT22;8137;48.952;8.970;2022-11-09T18:26:20;12.20;99.90
16066;DHT22;8137;48.952;8.970;2022-11-09T18:28:46;12.10;99.90
16066;DHT22;8137;48.952;8.970;2022-11-09T18:31:12;12.00;99.90
16066;DHT22;8137;48.952;8.970;2022-11-09T18:33:39;12.00;99.90